sensor_id;sensor_type;location;lat;lon;timestamp;pressure;altitude;pressure_sealevel;temperature;humidity
64192;BME280;50497;50.720;-2.084;2022-11-25T00:01:33;100583.25;;;10.36;100.00
64192;BME280;50497;50.720;-2.084;2022-11-25T00:03:59;100574.53;;;10.50;100.00
64192;BME280;50497;50.720;-2.084;2022-11-25T00:06:29;100576.59;;;10.45;100.00
64192;BME280;50497;50.720;-2.084;2022-11-25T00:09:04;100565.47;;;10.35;100.00
64192;BME280;50497;50.720;-2.084;2022-11-25T00:11:33;100592.84;;;10.40;100.00
64192;BME280;50497;50.720;-2.084;2022-11-25T00:13:59;100607.97;;;10.41;100.00
64192;BME280;50497;50.720;-2.084;2022-11-25T00:16:25;100594.13;;;10.50;100.00
64192;BME280;50497;50.720;-2.084;2022-11-25T00:18:52;100588.00;;;10.48;100.00
64192;BME280;50497;50.720;-2.084;2022-11-25T00:21:21;100595.53;;;10.40;100.00
64192;BME280;50497;50.720;-2.084;2022-11-25T00:23:51;100602.63;;;10.41;100.00
64192;BME280;50497;50.720;-2.084;2022-11-25T00:26:17;100593.63;;;10.42;100.00
64192;BME280;50497;50.720;-2.084;2022-11-25T00:28:44;100606.22;;;10.40;100.00
64192;BME280;50497;50.720;-2.084;2022-11-25T00:31:12;100628.34;;;10.44;100.00
64192;BME280;50497;50.720;-2.084;2022-11-25T00:33:39;100615.19;;;10.39;100.00
64192;BME280;50497;50.720;-2.084;2022-11-25T00:36:06;100612.22;;;10.26;100.00
64192;BME280;50497;50.720;-2.084;2022-11-25T00:38:34;100625.44;;;10.29;100.00
64192;BME280;50497;50.720;-2.084;2022-11-25T00:41:00;100613.53;;;10.37;100.00
64192;BME280;50497;50.720;-2.084;2022-11-25T00:43:44;100590.25;;;10.20;100.00
64192;BME280;50497;50.720;-2.084;2022-11-25T00:46:28;100609.25;;;10.13;100.00
64192;BME280;50497;50.720;-2.084;2022-11-25T00:48:53;100603.47;;;10.04;100.00
64192;BME280;50497;50.720;-2.084;2022-11-25T00:51:19;100617.00;;;10.01;100.00
64192;BME280;50497;50.720;-2.084;2022-11-25T00:53:45;100621.53;;;9.98;100.00
64192;BME280;50497;50.720;-2.084;2022-11-25T00:56:10;100606.94;;;9.87;100.00
64192;BME280;50497;50.720;-2.084;2022-11-25T00:58:40;100630.22;;;10.04;100.00
64192;BME280;50497;50.720;-2.084;2022-11-25T01:01:06;100629.56;;;9.98;100.00
64192;BME280;50497;50.720;-2.084;2022-11-25T01:03:32;100639.81;;;9.89;100.00
64192;BME280;50497;50.720;-2.084;2022-11-25T01:06:02;100626.97;;;9.78;100.00
64192;BME280;50497;50.720;-2.084;2022-11-25T01:08:31;100643.66;;;9.83;100.00
64192;BME280;50497;50.720;-2.084;2022-11-25T01:10:58;100645.50;;;9.81;100.00
64192;BME280;50497;50.720;-2.084;2022-11-25T01:13:24;100666.53;;;9.89;100.00
64192;BME280;50497;50.720;-2.084;2022-11-25T01:15:49;100649.47;;;9.72;100.00
64192;BME280;50497;50.720;-2.084;2022-11-25T01:18:15;100666.88;;;9.81;100.00
64192;BME280;50497;50.720;-2.084;2022-11-25T01:20:40;100679.25;;;9.84;100.00
64192;BME280;50497;50.720;-2.084;2022-11-25T01:23:06;100676.44;;;9.87;100.00
64192;BME280;50497;50.720;-2.084;2022-11-25T01:25:35;100680.47;;;9.95;100.00
64192;BME280;50497;50.720;-2.084;2022-11-25T01:28:00;100665.03;;;9.83;100.00
64192;BME280;50497;50.720;-2.084;2022-11-25T01:30:26;100696.34;;;9.79;100.00
64192;BME280;50497;50.720;-2.084;2022-11-25T01:32:52;100702.44;;;9.83;100.00
64192;BME280;50497;50.720;-2.084;2022-11-25T01:35:17;100695.94;;;9.89;100.00
64192;BME280;50497;50.720;-2.084;2022-11-25T01:37:43;100702.28;;;9.86;100.00
64192;BME280;50497;50.720;-2.084;2022-11-25T01:40:09;100698.41;;;9.93;100.00
64192;BME280;50497;50.720;-2.084;2022-11-25T01:42:41;100699.19;;;9.95;100.00
64192;BME280;50497;50.720;-2.084;2022-11-25T01:45:25;100699.13;;;9.97;100.00
64192;BME280;50497;50.720;-2.084;2022-11-25T01:47:55;100699.06;;;9.98;100.00
64192;BME280;50497;50.720;-2.084;2022-11-25T01:50:24;100717.84;;;9.97;100.00
64192;BME280;50497;50.720;-2.084;2022-11-25T01:52:53;100719.56;;;9.98;100.00
64192;BME280;50497;50.720;-2.084;2022-11-25T01:55:27;100722.19;;;9.99;100.00
64192;BME280;50497;50.720;-2.084;2022-11-25T01:58:02;100729.03;;;9.86;100.00
64192;BME280;50497;50.720;-2.084;2022-11-25T02:00:29;100730.06;;;9.82;100.00
64192;BME280;50497;50.720;-2.084;2022-11-25T02:02:56;100730.13;;;9.80;100.00
64192;BME280;50497;50.720;-2.084;2022-11-25T02:05:39;100735.63;;;9.77;100.00
64192;BME280;50497;50.720;-2.084;2022-11-25T02:08:06;100742.03;;;9.73;100.00
64192;BME280;50497;50.720;-2.084;2022-11-25T02:10:33;100737.44;;;9.77;100.00
64192;BME280;50497;50.720;-2.084;2022-11-25T02:12:59;100746.97;;;9.83;100.00
64192;BME280;50497;50.720;-2.084;2022-11-25T02:15:25;100760.69;;;9.75;100.00
64192;BME280;50497;50.720;-2.084;2022-11-25T02:17:52;100763.75;;;9.86;100.00
64192;BME280;50497;50.720;-2.084;2022-11-25T02:20:20;100775.44;;;9.84;100.00
64192;BME280;50497;50.720;-2.084;2022-11-25T02:25:36;100776.91;;;9.70;100.00
64192;BME280;50497;50.720;-2.084;2022-11-25T02:28:17;100791.78;;;9.76;100.00
64192;BME280;50497;50.720;-2.084;2022-11-25T02:30:44;100790.00;;;9.76;100.00
64192;BME280;50497;50.720;-2.084;2022-11-25T02:33:10;100791.94;;;9.73;100.00
64192;BME280;50497;50.720;-2.084;2022-11-25T02:35:40;100779.09;;;9.60;100.00
64192;BME280;50497;50.720;-2.084;2022-11-25T02:38:11;100800.16;;;9.68;100.00
64192;BME280;50497;50.720;-2.084;2022-11-25T02:43:06;100806.72;;;9.59;100.00
64192;BME280;50497;50.720;-2.084;2022-11-25T02:45:39;100812.16;;;9.58;100.00
64192;BME280;50497;50.720;-2.084;2022-11-25T02:48:07;100815.28;;;9.47;100.00
64192;BME280;50497;50.720;-2.084;2022-11-25T02:50:32;100818.00;;;9.46;100.00
64192;BME280;50497;50.720;-2.084;2022-11-25T02:52:58;100823.34;;;9.46;100.00
64192;BME280;50497;50.720;-2.084;2022-11-25T02:55:23;100821.13;;;9.35;100.00
64192;BME280;50497;50.720;-2.084;2022-11-25T02:57:49;100834.66;;;9.52;100.00
64192;BME280;50497;50.720;-2.084;2022-11-25T03:00:15;100834.47;;;9.57;100.00
64192;BME280;50497;50.720;-2.084;2022-11-25T03:02:40;100844.47;;;9.52;100.00
64192;BME280;50497;50.720;-2.084;2022-11-25T03:05:06;100848.41;;;9.43;100.00
64192;BME280;50497;50.720;-2.084;2022-11-25T03:07:31;100862.66;;;9.42;100.00
64192;BME280;50497;50.720;-2.084;2022-11-25T03:09:57;100861.28;;;9.54;100.00
64192;BME280;50497;50.720;-2.084;2022-11-25T03:12:23;100868.28;;;9.58;100.00
64192;BME280;50497;50.720;-2.084;2022-11-25T03:14:48;100854.34;;;9.50;100.00
64192;BME280;50497;50.720;-2.084;2022-11-25T03:17:13;100862.72;;;9.40;100.00
64192;BME280;50497;50.720;-2.084;2022-11-25T03:19:39;100880.56;;;9.40;100.00
64192;BME280;50497;50.720;-2.084;2022-11-25T03:22:05;100888.75;;;9.35;100.00
64192;BME280;50497;50.720;-2.084;2022-11-25T03:24:31;100883.47;;;9.34;100.00
64192;BME280;50497;50.720;-2.084;2022-11-25T03:26:57;100888.97;;;9.29;100.00
64192;BME280;50497;50.720;-2.084;2022-11-25T03:29:23;100887.13;;;9.31;100.00
64192;BME280;50497;50.720;-2.084;2022-11-25T03:31:48;100893.59;;;9.25;100.00
64192;BME280;50497;50.720;-2.084;2022-11-25T03:34:13;100881.81;;;9.07;100.00
64192;BME280;50497;50.720;-2.084;2022-11-25T03:36:39;100898.53;;;9.13;100.00
64192;BME280;50497;50.720;-2.084;2022-11-25T03:39:04;100901.75;;;9.21;100.00
64192;BME280;50497;50.720;-2.084;2022-11-25T03:41:30;100928.22;;;9.27;100.00
64192;BME280;50497;50.720;-2.084;2022-11-25T03:43:55;100926.41;;;9.28;100.00
64192;BME280;50497;50.720;-2.084;2022-11-25T03:46:21;100908.22;;;9.15;100.00
64192;BME280;50497;50.720;-2.084;2022-11-25T03:48:46;100923.88;;;9.24;100.00
64192;BME280;50497;50.720;-2.084;2022-11-25T03:51:12;100927.19;;;9.07;100.00
64192;BME280;50497;50.720;-2.084;2022-11-25T03:53:37;100945.59;;;9.15;100.00
64192;BME280;50497;50.720;-2.084;2022-11-25T03:56:03;100947.53;;;9.12;100.00
64192;BME280;50497;50.720;-2.084;2022-11-25T03:58:28;100956.28;;;9.15;100.00
64192;BME280;50497;50.720;-2.084;2022-11-25T04:00:59;100970.53;;;9.14;100.00
64192;BME280;50497;50.720;-2.084;2022-11-25T04:03:24;100979.06;;;9.00;100.00
64192;BME280;50497;50.720;-2.084;2022-11-25T04:05:50;100970.59;;;8.89;100.00
64192;BME280;50497;50.720;-2.084;2022-11-25T04:08:15;100989.44;;;8.84;100.00
64192;BME280;50497;50.720;-2.084;2022-11-25T04:10:41;100985.69;;;8.90;100.00
64192;BME280;50497;50.720;-2.084;2022-11-25T04:13:06;100981.16;;;8.92;100.00
64192;BME280;50497;50.720;-2.084;2022-11-25T04:15:32;100981.47;;;8.83;100.00
64192;BME280;50497;50.720;-2.084;2022-11-25T04:17:57;100979.09;;;8.75;100.00
64192;BME280;50497;50.720;-2.084;2022-11-25T04:20:23;100995.88;;;8.79;100.00
64192;BME280;50497;50.720;-2.084;2022-11-25T04:22:49;100996.72;;;8.79;100.00
64192;BME280;50497;50.720;-2.084;2022-11-25T04:25:14;101006.53;;;8.79;100.00
64192;BME280;50497;50.720;-2.084;2022-11-25T04:27:40;101012.03;;;8.74;100.00
64192;BME280;50497;50.720;-2.084;2022-11-25T04:30:06;101001.72;;;8.65;100.00
64192;BME280;50497;50.720;-2.084;2022-11-25T04:32:32;101020.44;;;8.63;100.00
64192;BME280;50497;50.720;-2.084;2022-11-25T04:34:57;101026.88;;;8.56;100.00
64192;BME280;50497;50.720;-2.084;2022-11-25T04:37:23;101033.88;;;8.60;100.00
64192;BME280;50497;50.720;-2.084;2022-11-25T04:39:49;101042.03;;;8.56;100.00
64192;BME280;50497;50.720;-2.084;2022-11-25T04:42:14;101030.75;;;8.47;100.00
64192;BME280;50497;50.720;-2.084;2022-11-25T04:44:59;101038.78;;;8.46;100.00
64192;BME280;50497;50.720;-2.084;2022-11-25T04:47:25;101063.41;;;8.54;100.00
64192;BME280;50497;50.720;-2.084;2022-11-25T04:49:51;101058.22;;;8.49;100.00
64192;BME280;50497;50.720;-2.084;2022-11-25T04:52:16;101066.94;;;8.55;100.00
64192;BME280;50497;50.720;-2.084;2022-11-25T04:54:41;101066.06;;;8.54;100.00
64192;BME280;50497;50.720;-2.084;2022-11-25T04:57:12;101080.22;;;8.56;100.00
64192;BME280;50497;50.720;-2.084;2022-11-25T04:59:40;101063.19;;;8.33;100.00
64192;BME280;50497;50.720;-2.084;2022-11-25T05:02:17;101085.38;;;8.34;100.00
64192;BME280;50497;50.720;-2.084;2022-11-25T05:04:45;101089.22;;;8.25;100.00
64192;BME280;50497;50.720;-2.084;2022-11-25T05:07:11;101103.34;;;8.27;100.00
64192;BME280;50497;50.720;-2.084;2022-11-25T05:09:37;101112.44;;;8.22;100.00
64192;BME280;50497;50.720;-2.084;2022-11-25T05:12:03;101126.06;;;8.11;100.00
64192;BME280;50497;50.720;-2.084;2022-11-25T05:14:29;101111.66;;;7.88;100.00
64192;BME280;50497;50.720;-2.084;2022-11-25T05:16:55;101128.75;;;7.81;100.00
64192;BME280;50497;50.720;-2.084;2022-11-25T05:19:21;101145.09;;;7.69;100.00
64192;BME280;50497;50.720;-2.084;2022-11-25T05:21:46;101148.06;;;7.58;100.00
64192;BME280;50497;50.720;-2.084;2022-11-25T05:24:12;101143.78;;;7.52;100.00
64192;BME280;50497;50.720;-2.084;2022-11-25T05:26:37;101146.53;;;7.49;100.00
64192;BME280;50497;50.720;-2.084;2022-11-25T05:29:03;101145.84;;;7.43;100.00
64192;BME280;50497;50.720;-2.084;2022-11-25T05:31:29;101156.69;;;7.35;100.00
64192;BME280;50497;50.720;-2.084;2022-11-25T05:33:54;101162.31;;;7.24;100.00
64192;BME280;50497;50.720;-2.084;2022-11-25T05:36:20;101173.00;;;7.22;100.00
64192;BME280;50497;50.720;-2.084;2022-11-25T05:38:45;101182.75;;;7.22;100.00
64192;BME280;50497;50.720;-2.084;2022-11-25T05:41:10;101181.97;;;7.18;100.00
64192;BME280;50497;50.720;-2.084;2022-11-25T05:43:36;101195.03;;;7.28;100.00
64192;BME280;50497;50.720;-2.084;2022-11-25T05:46:06;101195.03;;;7.28;100.00
64192;BME280;50497;50.720;-2.084;2022-11-25T05:48:32;101189.56;;;7.34;100.00
64192;BME280;50497;50.720;-2.084;2022-11-25T05:51:02;101203.59;;;7.40;100.00
64192;BME280;50497;50.720;-2.084;2022-11-25T05:53:28;101204.31;;;7.46;100.00
64192;BME280;50497;50.720;-2.084;2022-11-25T05:56:05;101207.84;;;7.46;100.00
64192;BME280;50497;50.720;-2.084;2022-11-25T05:58:31;101204.31;;;7.46;100.00
64192;BME280;50497;50.720;-2.084;2022-11-25T06:00:58;101207.09;;;7.41;100.00
64192;BME280;50497;50.720;-2.084;2022-11-25T06:03:24;101189.69;;;7.29;100.00
64192;BME280;50497;50.720;-2.084;2022-11-25T06:05:51;101222.41;;;7.33;100.00
64192;BME280;50497;50.720;-2.084;2022-11-25T06:08:16;101233.84;;;7.36;100.00
64192;BME280;50497;50.720;-2.084;2022-11-25T06:10:42;101237.50;;;7.32;100.00
64192;BME280;50497;50.720;-2.084;2022-11-25T06:13:08;101239.28;;;7.32;100.00
64192;BME280;50497;50.720;-2.084;2022-11-25T06:15:34;101240.34;;;7.25;100.00
64192;BME280;50497;50.720;-2.084;2022-11-25T06:18:04;101252.84;;;7.22;100.00
64192;BME280;50497;50.720;-2.084;2022-11-25T06:20:29;101237.84;;;7.18;100.00
64192;BME280;50497;50.720;-2.084;2022-11-25T06:22:56;101270.78;;;7.14;100.00
64192;BME280;50497;50.720;-2.084;2022-11-25T06:25:23;101279.66;;;7.13;100.00
64192;BME280;50497;50.720;-2.084;2022-11-25T06:27:48;101278.03;;;7.08;100.00
64192;BME280;50497;50.720;-2.084;2022-11-25T06:30:14;101283.53;;;7.00;100.00
64192;BME280;50497;50.720;-2.084;2022-11-25T06:32:40;101294.94;;;7.05;100.00
64192;BME280;50497;50.720;-2.084;2022-11-25T06:35:05;101290.75;;;6.95;100.00
64192;BME280;50497;50.720;-2.084;2022-11-25T06:37:32;101302.25;;;6.95;100.00
64192;BME280;50497;50.720;-2.084;2022-11-25T06:39:58;101308.75;;;6.83;100.00
64192;BME280;50497;50.720;-2.084;2022-11-25T06:42:23;101316.78;;;6.80;100.00
64192;BME280;50497;50.720;-2.084;2022-11-25T06:44:49;101324.00;;;6.75;100.00
64192;BME280;50497;50.720;-2.084;2022-11-25T06:47:14;101311.81;;;6.65;100.00
64192;BME280;50497;50.720;-2.084;2022-11-25T06:49:40;101316.44;;;6.57;100.00
64192;BME280;50497;50.720;-2.084;2022-11-25T06:52:05;101327.72;;;6.68;100.00
64192;BME280;50497;50.720;-2.084;2022-11-25T06:54:31;101334.84;;;6.66;100.00
64192;BME280;50497;50.720;-2.084;2022-11-25T06:56:57;101339.28;;;6.65;100.00
64192;BME280;50497;50.720;-2.084;2022-11-25T06:59:22;101343.94;;;6.56;100.00
64192;BME280;50497;50.720;-2.084;2022-11-25T07:01:48;101358.03;;;6.59;100.00
64192;BME280;50497;50.720;-2.084;2022-11-25T07:04:13;101353.75;;;6.51;100.00
64192;BME280;50497;50.720;-2.084;2022-11-25T07:06:39;101354.69;;;6.50;100.00
64192;BME280;50497;50.720;-2.084;2022-11-25T07:09:04;101360.03;;;6.48;100.00
64192;BME280;50497;50.720;-2.084;2022-11-25T07:11:33;101376.97;;;6.42;100.00
64192;BME280;50497;50.720;-2.084;2022-11-25T07:14:01;101386.84;;;6.36;100.00
64192;BME280;50497;50.720;-2.084;2022-11-25T07:16:27;101392.13;;;6.37;100.00
64192;BME280;50497;50.720;-2.084;2022-11-25T07:18:53;101401.97;;;6.32;100.00
64192;BME280;50497;50.720;-2.084;2022-11-25T07:21:22;101410.00;;;6.29;100.00
64192;BME280;50497;50.720;-2.084;2022-11-25T07:23:49;101399.56;;;6.20;100.00
64192;BME280;50497;50.720;-2.084;2022-11-25T07:26:18;101426.13;;;6.20;100.00
64192;BME280;50497;50.720;-2.084;2022-11-25T07:28:44;101441.38;;;6.08;100.00
64192;BME280;50497;50.720;-2.084;2022-11-25T07:31:24;101445.09;;;6.00;100.00
64192;BME280;50497;50.720;-2.084;2022-11-25T07:33:51;101455.00;;;5.87;100.00
64192;BME280;50497;50.720;-2.084;2022-11-25T07:36:17;101463.84;;;5.87;100.00
64192;BME280;50497;50.720;-2.084;2022-11-25T07:38:43;101476.25;;;5.87;100.00
64192;BME280;50497;50.720;-2.084;2022-11-25T07:41:14;101472.78;;;5.83;100.00
64192;BME280;50497;50.720;-2.084;2022-11-25T07:43:43;101465.84;;;5.73;100.00
64192;BME280;50497;50.720;-2.084;2022-11-25T07:48:37;101493.16;;;5.83;100.00
64192;BME280;50497;50.720;-2.084;2022-11-25T07:51:04;101501.97;;;5.85;100.00
64192;BME280;50497;50.720;-2.084;2022-11-25T07:53:29;101508.97;;;5.89;100.00
64192;BME280;50497;50.720;-2.084;2022-11-25T07:55:54;101503.63;;;5.90;100.00
64192;BME280;50497;50.720;-2.084;2022-11-25T07:58:20;101523.03;;;5.94;100.00
64192;BME280;50497;50.720;-2.084;2022-11-25T08:00:45;101519.44;;;6.03;100.00
64192;BME280;50497;50.720;-2.084;2022-11-25T08:03:11;101523.00;;;5.99;100.00
64192;BME280;50497;50.720;-2.084;2022-11-25T08:05:37;101523.06;;;5.92;100.00
64192;BME280;50497;50.720;-2.084;2022-11-25T08:08:02;101544.97;;;6.12;100.00
64192;BME280;50497;50.720;-2.084;2022-11-25T08:10:28;101546.53;;;6.23;100.00
64192;BME280;50497;50.720;-2.084;2022-11-25T08:12:53;101564.09;;;6.32;100.00
64192;BME280;50497;50.720;-2.084;2022-11-25T08:15:18;101568.31;;;6.45;100.00
64192;BME280;50497;50.720;-2.084;2022-11-25T08:17:44;101564.81;;;6.43;100.00
64192;BME280;50497;50.720;-2.084;2022-11-25T08:20:10;101587.63;;;6.57;100.00
64192;BME280;50497;50.720;-2.084;2022-11-25T08:22:35;101576.22;;;6.50;100.00
64192;BME280;50497;50.720;-2.084;2022-11-25T08:25:00;101602.44;;;6.72;100.00
64192;BME280;50497;50.720;-2.084;2022-11-25T08:27:26;101585.63;;;6.70;100.00
64192;BME280;50497;50.720;-2.084;2022-11-25T08:29:51;101603.16;;;6.81;100.00
64192;BME280;50497;50.720;-2.084;2022-11-25T08:32:17;101596.78;;;6.90;100.00
64192;BME280;50497;50.720;-2.084;2022-11-25T08:34:42;101587.19;;;6.81;100.00
64192;BME280;50497;50.720;-2.084;2022-11-25T08:37:08;101617.84;;;7.02;100.00
64192;BME280;50497;50.720;-2.084;2022-11-25T08:39:33;101602.00;;;6.96;100.00
64192;BME280;50497;50.720;-2.084;2022-11-25T08:42:02;101629.22;;;7.11;100.00
64192;BME280;50497;50.720;-2.084;2022-11-25T08:44:29;101630.00;;;7.17;100.00
64192;BME280;50497;50.720;-2.084;2022-11-25T08:46:54;101635.28;;;7.19;100.00
64192;BME280;50497;50.720;-2.084;2022-11-25T08:49:20;101641.38;;;7.26;100.00
64192;BME280;50497;50.720;-2.084;2022-11-25T08:51:46;101654.56;;;7.30;100.00
64192;BME280;50497;50.720;-2.084;2022-11-25T08:54:12;101655.44;;;7.32;100.00
64192;BME280;50497;50.720;-2.084;2022-11-25T08:56:38;101657.09;;;7.38;100.00
64192;BME280;50497;50.720;-2.084;2022-11-25T08:59:04;101655.47;;;7.31;100.00
64192;BME280;50497;50.720;-2.084;2022-11-25T09:01:30;101668.63;;;7.37;100.00
64192;BME280;50497;50.720;-2.084;2022-11-25T09:03:56;101672.16;;;7.39;100.00
64192;BME280;50497;50.720;-2.084;2022-11-25T09:06:24;101680.00;;;7.45;100.00
64192;BME280;50497;50.720;-2.084;2022-11-25T09:08:53;101680.00;;;7.45;100.00
64192;BME280;50497;50.720;-2.084;2022-11-25T09:11:20;101692.22;;;7.57;100.00
64192;BME280;50497;50.720;-2.084;2022-11-25T09:13:45;101687.66;;;7.64;100.00
64192;BME280;50497;50.720;-2.084;2022-11-25T09:16:10;101707.06;;;7.70;100.00
64192;BME280;50497;50.720;-2.084;2022-11-25T09:18:36;101696.63;;;7.59;100.00
64192;BME280;50497;50.720;-2.084;2022-11-25T09:21:10;101714.09;;;7.73;100.00
64192;BME280;50497;50.720;-2.084;2022-11-25T09:23:37;101717.59;;;7.75;100.00
64192;BME280;50497;50.720;-2.084;2022-11-25T09:26:03;101710.16;;;7.92;100.00
64192;BME280;50497;50.720;-2.084;2022-11-25T09:28:29;101716.22;;;8.01;100.00
64192;BME280;50497;50.720;-2.084;2022-11-25T09:30:55;101697.59;;;7.99;100.00
64192;BME280;50497;50.720;-2.084;2022-11-25T09:33:21;101713.28;;;8.13;100.00
64192;BME280;50497;50.720;-2.084;2022-11-25T09:35:46;101723.69;;;8.25;100.00
64192;BME280;50497;50.720;-2.084;2022-11-25T09:38:13;101719.09;;;8.32;100.00
64192;BME280;50497;50.720;-2.084;2022-11-25T09:43:29;101717.78;;;8.51;100.00
64192;BME280;50497;50.720;-2.084;2022-11-25T09:49:34;101721.09;;;8.61;100.00
64192;BME280;50497;50.720;-2.084;2022-11-25T09:52:19;101723.69;;;8.66;100.00
64192;BME280;50497;50.720;-2.084;2022-11-25T09:55:15;101718.16;;;8.74;100.00
64192;BME280;50497;50.720;-2.084;2022-11-25T10:00:17;101701.72;;;8.91;100.00
64192;BME280;50497;50.720;-2.084;2022-11-25T10:05:24;101726.88;;;9.16;100.00
64192;BME280;50497;50.720;-2.084;2022-11-25T10:08:07;101720.25;;;9.31;100.00
64192;BME280;50497;50.720;-2.084;2022-11-25T10:10:44;101720.84;;;9.75;100.00
64192;BME280;50497;50.720;-2.084;2022-11-25T10:13:22;101723.09;;;10.21;100.00
64192;BME280;50497;50.720;-2.084;2022-11-25T10:15:49;101712.75;;;10.68;100.00
64192;BME280;50497;50.720;-2.084;2022-11-25T10:18:22;101717.53;;;11.38;100.00
64192;BME280;50497;50.720;-2.084;2022-11-25T10:20:50;101710.91;;;11.74;100.00
64192;BME280;50497;50.720;-2.084;2022-11-25T10:23:35;101712.34;;;12.31;100.00
64192;BME280;50497;50.720;-2.084;2022-11-25T10:26:13;101712.94;;;12.16;100.00
64192;BME280;50497;50.720;-2.084;2022-11-25T10:28:41;101719.22;;;11.91;100.00
64192;BME280;50497;50.720;-2.084;2022-11-25T10:31:34;101723.25;;;12.03;100.00
64192;BME280;50497;50.720;-2.084;2022-11-25T10:33:59;101726.53;;;12.11;100.00
64192;BME280;50497;50.720;-2.084;2022-11-25T10:36:34;101719.47;;;12.32;100.00
64192;BME280;50497;50.720;-2.084;2022-11-25T10:39:16;101741.56;;;12.39;100.00
64192;BME280;50497;50.720;-2.084;2022-11-25T10:44:30;101744.59;;;12.06;100.00
64192;BME280;50497;50.720;-2.084;2022-11-25T10:47:20;101742.63;;;12.11;100.00
64192;BME280;50497;50.720;-2.084;2022-11-25T10:52:58;101761.34;;;11.88;100.00
64192;BME280;50497;50.720;-2.084;2022-11-25T10:55:30;101765.69;;;11.90;100.00
64192;BME280;50497;50.720;-2.084;2022-11-25T10:57:56;101782.16;;;11.81;100.00
64192;BME280;50497;50.720;-2.084;2022-11-25T11:02:54;101779.63;;;11.76;100.00
64192;BME280;50497;50.720;-2.084;2022-11-25T11:05:29;101794.63;;;11.82;100.00
64192;BME280;50497;50.720;-2.084;2022-11-25T11:08:15;101802.63;;;12.09;100.00
64192;BME280;50497;50.720;-2.084;2022-11-25T11:10:42;101808.28;;;12.48;100.00
64192;BME280;50497;50.720;-2.084;2022-11-25T11:13:21;101802.22;;;12.43;100.00
64192;BME280;50497;50.720;-2.084;2022-11-25T11:15:48;101795.63;;;12.75;100.00
64192;BME280;50497;50.720;-2.084;2022-11-25T11:18:27;101790.94;;;13.47;100.00
64192;BME280;50497;50.720;-2.084;2022-11-25T11:20:58;101788.16;;;14.10;100.00
64192;BME280;50497;50.720;-2.084;2022-11-25T11:23:25;101771.16;;;14.29;100.00
64192;BME280;50497;50.720;-2.084;2022-11-25T11:26:05;101785.97;;;14.77;100.00
64192;BME280;50497;50.720;-2.084;2022-11-25T11:36:38;101799.63;;;14.53;100.00
64192;BME280;50497;50.720;-2.084;2022-11-25T11:42:00;101808.19;;;14.23;100.00
64192;BME280;50497;50.720;-2.084;2022-11-25T11:44:45;101821.38;;;14.30;100.00
64192;BME280;50497;50.720;-2.084;2022-11-25T11:47:24;101826.56;;;14.72;100.00
64192;BME280;50497;50.720;-2.084;2022-11-25T11:50:08;101828.72;;;14.45;100.00
64192;BME280;50497;50.720;-2.084;2022-11-25T12:00:44;101843.91;;;12.99;100.00
64192;BME280;50497;50.720;-2.084;2022-11-25T12:03:21;101856.84;;;12.89;100.00
64192;BME280;50497;50.720;-2.084;2022-11-25T12:05:48;101858.88;;;12.83;100.00
64192;BME280;50497;50.720;-2.084;2022-11-25T12:08:29;101873.06;;;12.86;100.00
64192;BME280;50497;50.720;-2.084;2022-11-25T12:11:02;101874.81;;;12.87;100.00
64192;BME280;50497;50.720;-2.084;2022-11-25T12:13:39;101882.53;;;12.73;100.00
64192;BME280;50497;50.720;-2.084;2022-11-25T12:19:10;101880.31;;;12.61;100.00
64192;BME280;50497;50.720;-2.084;2022-11-25T12:21:59;101896.72;;;12.53;100.00
64192;BME280;50497;50.720;-2.084;2022-11-25T12:24:45;101891.69;;;12.44;100.00
64192;BME280;50497;50.720;-2.084;2022-11-25T12:27:19;101885.63;;;12.38;100.00
64192;BME280;50497;50.720;-2.084;2022-11-25T12:29:54;101908.56;;;12.47;100.00
64192;BME280;50497;50.720;-2.084;2022-11-25T12:35:13;101894.28;;;12.47;100.00
64192;BME280;50497;50.720;-2.084;2022-11-25T12:37:48;101901.38;;;12.48;100.00
64192;BME280;50497;50.720;-2.084;2022-11-25T12:40:25;101905.72;;;12.52;100.00
64192;BME280;50497;50.720;-2.084;2022-11-25T12:43:04;101914.75;;;12.49;100.00
64192;BME280;50497;50.720;-2.084;2022-11-25T12:45:32;101892.50;;;12.46;100.00
64192;BME280;50497;50.720;-2.084;2022-11-25T12:47:57;101898.31;;;12.82;100.00
64192;BME280;50497;50.720;-2.084;2022-11-25T12:50:57;101897.59;;;13.23;100.00
64192;BME280;50497;50.720;-2.084;2022-11-25T12:55:58;101895.81;;;13.23;100.00
64192;BME280;50497;50.720;-2.084;2022-11-25T13:01:39;101919.72;;;13.75;100.00
64192;BME280;50497;50.720;-2.084;2022-11-25T13:04:27;101897.72;;;14.68;100.00
64192;BME280;50497;50.720;-2.084;2022-11-25T13:12:44;101889.94;;;16.27;100.00
64192;BME280;50497;50.720;-2.084;2022-11-25T13:17:55;101905.38;;;14.77;100.00
64192;BME280;50497;50.720;-2.084;2022-11-25T13:25:42;101938.63;;;13.04;100.00
64192;BME280;50497;50.720;-2.084;2022-11-25T13:28:28;101944.31;;;12.97;100.00
64192;BME280;50497;50.720;-2.084;2022-11-25T13:30:54;101953.47;;;12.91;100.00
64192;BME280;50497;50.720;-2.084;2022-11-25T13:36:22;101963.19;;;12.70;100.00
64192;BME280;50497;50.720;-2.084;2022-11-25T13:46:41;101961.84;;;12.33;100.00
64192;BME280;50497;50.720;-2.084;2022-11-25T13:54:47;101982.34;;;12.35;100.00
64192;BME280;50497;50.720;-2.084;2022-11-25T14:07:43;101995.72;;;12.37;100.00
64192;BME280;50497;50.720;-2.084;2022-11-25T14:26:54;102030.69;;;12.07;100.00
64192;BME280;50497;50.720;-2.084;2022-11-25T14:32:04;102025.53;;;12.01;100.00
64192;BME280;50497;50.720;-2.084;2022-11-25T14:34:45;102038.22;;;11.96;100.00
64192;BME280;50497;50.720;-2.084;2022-11-25T14:37:28;102048.91;;;11.97;100.00
64192;BME280;50497;50.720;-2.084;2022-11-25T14:40:07;102046.47;;;11.88;100.00
64192;BME280;50497;50.720;-2.084;2022-11-25T14:42:36;102046.50;;;11.87;100.00
64192;BME280;50497;50.720;-2.084;2022-11-25T14:45:19;102036.25;;;11.73;100.00